sensor_id;sensor_type;location;lat;lon;timestamp;temperature;humidity
4787;DHT22;62338;48.832;9.422;2023-04-03T00:01:02;0.50;63.70
4787;DHT22;62338;48.832;9.422;2023-04-03T00:03:04;0.40;58.60
4787;DHT22;62338;48.832;9.422;2023-04-03T00:05:07;0.40;52.80
4787;DHT22;62338;48.832;9.422;2023-04-03T00:07:08;0.40;67.70
4787;DHT22;62338;48.832;9.422;2023-04-03T00:09:10;0.40;84.40
4787;DHT22;62338;48.832;9.422;2023-04-03T00:11:12;0.40;90.00
4787;DHT22;62338;48.832;9.422;2023-04-03T00:13:14;0.30;90.90
4787;DHT22;62338;48.832;9.422;2023-04-03T00:21:29;0.30;99.90
4787;DHT22;62338;48.832;9.422;2023-04-03T00:23:31;0.30;99.90
4787;DHT22;62338;48.832;9.422;2023-04-03T00:25:33;0.30;99.90
4787;DHT22;62338;48.832;9.422;2023-04-03T00:27:37;0.30;99.90
4787;DHT22;62338;48.832;9.422;2023-04-03T00:29:39;0.30;99.90
4787;DHT22;62338;48.832;9.422;2023-04-03T00:31:41;0.30;99.90
4787;DHT22;62338;48.832;9.422;2023-04-03T00:33:42;0.30;99.90
4787;DHT22;62338;48.832;9.422;2023-04-03T00:35:44;0.30;99.90
4787;DHT22;62338;48.832;9.422;2023-04-03T00:37:46;0.30;99.90
4787;DHT22;62338;48.832;9.422;2023-04-03T00:39:48;0.30;99.90
4787;DHT22;62338;48.832;9.422;2023-04-03T00:41:50;0.30;99.90
4787;DHT22;62338;48.832;9.422;2023-04-03T00:43:52;0.30;99.90
4787;DHT22;62338;48.832;9.422;2023-04-03T00:45:58;0.30;99.90
4787;DHT22;62338;48.832;9.422;2023-04-03T00:48:01;0.30;99.90
4787;DHT22;62338;48.832;9.422;2023-04-03T00:50:04;0.30;99.90
4787;DHT22;62338;48.832;9.422;2023-04-03T00:52:11;0.30;99.90
4787;DHT22;62338;48.832;9.422;2023-04-03T00:54:15;0.30;99.90
4787;DHT22;62338;48.832;9.422;2023-04-03T00:56:18;0.30;99.90
4787;DHT22;62338;48.832;9.422;2023-04-03T00:58:24;0.20;99.90
4787;DHT22;62338;48.832;9.422;2023-04-03T01:00:28;0.20;99.90
4787;DHT22;62338;48.832;9.422;2023-04-03T01:02:30;-1.20;99.90
4787;DHT22;62338;48.832;9.422;2023-04-03T01:04:33;0.10;99.90
4787;DHT22;62338;48.832;9.422;2023-04-03T01:06:37;0.10;99.90
4787;DHT22;62338;48.832;9.422;2023-04-03T01:08:39;0.10;99.90
4787;DHT22;62338;48.832;9.422;2023-04-03T01:10:40;0.00;99.90
4787;DHT22;62338;48.832;9.422;2023-04-03T01:12:44;0.00;99.90
4787;DHT22;62338;48.832;9.422;2023-04-03T01:14:53;0.00;99.90
4787;DHT22;62338;48.832;9.422;2023-04-03T01:16:55;0.00;99.90
4787;DHT22;62338;48.832;9.422;2023-04-03T01:18:58;0.00;99.90
4787;DHT22;62338;48.832;9.422;2023-04-03T01:24:12;0.00;99.90
4787;DHT22;62338;48.832;9.422;2023-04-03T01:25:54;0.00;99.90
4787;DHT22;62338;48.832;9.422;2023-04-03T01:27:56;0.00;99.90
4787;DHT22;62338;48.832;9.422;2023-04-03T01:29:58;0.00;97.80
4787;DHT22;62338;48.832;9.422;2023-04-03T01:32:02;0.00;92.80
4787;DHT22;62338;48.832;9.422;2023-04-03T01:34:04;0.10;86.00
4787;DHT22;62338;48.832;9.422;2023-04-03T01:36:06;0.10;87.80
4787;DHT22;62338;48.832;9.422;2023-04-03T01:38:08;0.10;72.60
4787;DHT22;62338;48.832;9.422;2023-04-03T01:40:10;0.10;65.80
4787;DHT22;62338;48.832;9.422;2023-04-03T01:42:12;0.10;69.40
4787;DHT22;62338;48.832;9.422;2023-04-03T01:44:14;0.10;60.90
4787;DHT22;62338;48.832;9.422;2023-04-03T01:46:19;0.10;54.60
4787;DHT22;62338;48.832;9.422;2023-04-03T01:48:21;0.10;35.20
4787;DHT22;62338;48.832;9.422;2023-04-03T01:50:23;0.10;19.60
4787;DHT22;62338;48.832;9.422;2023-04-03T01:52:25;0.00;15.60
4787;DHT22;62338;48.832;9.422;2023-04-03T01:54:26;0.00;12.80
4787;DHT22;62338;48.832;9.422;2023-04-03T01:56:28;0.00;14.50
4787;DHT22;62338;48.832;9.422;2023-04-03T01:58:31;0.00;14.10
4787;DHT22;62338;48.832;9.422;2023-04-03T02:00:35;0.00;18.40
4787;DHT22;62338;48.832;9.422;2023-04-03T02:02:38;0.00;19.90
4787;DHT22;62338;48.832;9.422;2023-04-03T02:04:40;0.00;26.50
4787;DHT22;62338;48.832;9.422;2023-04-03T02:06:41;0.00;23.40
4787;DHT22;62338;48.832;9.422;2023-04-03T02:08:43;0.00;16.50
4787;DHT22;62338;48.832;9.422;2023-04-03T02:10:47;0.00;12.30
4787;DHT22;62338;48.832;9.422;2023-04-03T02:12:49;0.00;16.30
4787;DHT22;62338;48.832;9.422;2023-04-03T02:14:52;0.00;3.00
4787;DHT22;62338;48.832;9.422;2023-04-03T02:16:53;0.00;1.00
4787;DHT22;62338;48.832;9.422;2023-04-03T02:18:55;0.10;1.00
4787;DHT22;62338;48.832;9.422;2023-04-03T02:20:58;0.10;1.00
4787;DHT22;62338;48.832;9.422;2023-04-03T02:23:00;0.10;1.00
4787;DHT22;62338;48.832;9.422;2023-04-03T02:25:02;0.10;1.00
4787;DHT22;62338;48.832;9.422;2023-04-03T02:27:04;0.20;1.00
4787;DHT22;62338;48.832;9.422;2023-04-03T02:29:06;0.30;1.00
4787;DHT22;62338;48.832;9.422;2023-04-03T02:31:09;0.30;1.00
4787;DHT22;62338;48.832;9.422;2023-04-03T02:33:11;0.40;1.00
4787;DHT22;62338;48.832;9.422;2023-04-03T02:35:13;0.40;1.00
4787;DHT22;62338;48.832;9.422;2023-04-03T02:37:15;0.50;1.00
4787;DHT22;62338;48.832;9.422;2023-04-03T02:39:17;0.50;1.00
4787;DHT22;62338;48.832;9.422;2023-04-03T02:41:18;0.50;1.00
4787;DHT22;62338;48.832;9.422;2023-04-03T02:43:20;0.60;1.00
4787;DHT22;62338;48.832;9.422;2023-04-03T02:45:22;0.70;1.00
4787;DHT22;62338;48.832;9.422;2023-04-03T02:47:23;0.80;1.00
4787;DHT22;62338;48.832;9.422;2023-04-03T02:49:25;0.80;1.00
4787;DHT22;62338;48.832;9.422;2023-04-03T02:51:27;0.80;1.00
4787;DHT22;62338;48.832;9.422;2023-04-03T02:53:29;0.80;1.00
4787;DHT22;62338;48.832;9.422;2023-04-03T02:55:30;0.90;1.00
4787;DHT22;62338;48.832;9.422;2023-04-03T02:57:32;1.00;1.00
4787;DHT22;62338;48.832;9.422;2023-04-03T02:59:35;1.00;1.00
4787;DHT22;62338;48.832;9.422;2023-04-03T03:01:37;1.00;1.00
4787;DHT22;62338;48.832;9.422;2023-04-03T03:03:39;1.10;1.00
4787;DHT22;62338;48.832;9.422;2023-04-03T03:05:40;1.10;1.00
4787;DHT22;62338;48.832;9.422;2023-04-03T03:07:42;1.10;1.00
4787;DHT22;62338;48.832;9.422;2023-04-03T03:09:44;1.10;1.00
4787;DHT22;62338;48.832;9.422;2023-04-03T03:11:46;1.10;1.00
4787;DHT22;62338;48.832;9.422;2023-04-03T03:13:47;1.10;1.00
4787;DHT22;62338;48.832;9.422;2023-04-03T03:15:49;1.10;1.00
4787;DHT22;62338;48.832;9.422;2023-04-03T03:17:51;1.20;1.00
4787;DHT22;62338;48.832;9.422;2023-04-03T03:19:53;1.20;1.00
4787;DHT22;62338;48.832;9.422;2023-04-03T03:21:55;1.20;1.00
4787;DHT22;62338;48.832;9.422;2023-04-03T03:23:58;1.30;1.00
4787;DHT22;62338;48.832;9.422;2023-04-03T03:26:02;1.30;1.00
4787;DHT22;62338;48.832;9.422;2023-04-03T03:28:04;1.30;1.00
4787;DHT22;62338;48.832;9.422;2023-04-03T03:30:07;1.30;1.00
4787;DHT22;62338;48.832;9.422;2023-04-03T03:32:09;1.20;1.00
4787;DHT22;62338;48.832;9.422;2023-04-03T03:34:10;1.30;1.00
4787;DHT22;62338;48.832;9.422;2023-04-03T03:36:12;1.30;1.00
4787;DHT22;62338;48.832;9.422;2023-04-03T03:38:14;1.30;1.00
4787;DHT22;62338;48.832;9.422;2023-04-03T03:40:16;1.30;1.00
4787;DHT22;62338;48.832;9.422;2023-04-03T03:42:18;1.20;1.00
4787;DHT22;62338;48.832;9.422;2023-04-03T03:44:20;1.30;1.00
4787;DHT22;62338;48.832;9.422;2023-04-03T03:46:22;1.30;1.00
4787;DHT22;62338;48.832;9.422;2023-04-03T03:48:24;1.30;1.00
4787;DHT22;62338;48.832;9.422;2023-04-03T03:50:26;1.30;1.00
4787;DHT22;62338;48.832;9.422;2023-04-03T03:52:27;1.30;1.00
4787;DHT22;62338;48.832;9.422;2023-04-03T03:54:29;1.30;1.00
4787;DHT22;62338;48.832;9.422;2023-04-03T03:56:31;1.30;1.00
4787;DHT22;62338;48.832;9.422;2023-04-03T03:58:33;1.30;1.00
4787;DHT22;62338;48.832;9.422;2023-04-03T04:00:35;1.30;1.00
4787;DHT22;62338;48.832;9.422;2023-04-03T04:02:37;1.40;1.00
4787;DHT22;62338;48.832;9.422;2023-04-03T04:04:38;1.40;1.00
4787;DHT22;62338;48.832;9.422;2023-04-03T04:06:40;1.40;1.00
4787;DHT22;62338;48.832;9.422;2023-04-03T04:08:42;1.30;1.00
4787;DHT22;62338;48.832;9.422;2023-04-03T04:10:44;1.30;1.00
4787;DHT22;62338;48.832;9.422;2023-04-03T04:12:46;1.40;1.00
4787;DHT22;62338;48.832;9.422;2023-04-03T04:14:48;1.40;1.00
4787;DHT22;62338;48.832;9.422;2023-04-03T04:16:49;1.40;1.00
4787;DHT22;62338;48.832;9.422;2023-04-03T04:18:51;1.30;1.00
4787;DHT22;62338;48.832;9.422;2023-04-03T04:20:53;1.30;1.00
4787;DHT22;62338;48.832;9.422;2023-04-03T04:22:55;1.30;1.00
4787;DHT22;62338;48.832;9.422;2023-04-03T04:24:57;1.30;1.00
4787;DHT22;62338;48.832;9.422;2023-04-03T04:26:58;1.30;1.00
4787;DHT22;62338;48.832;9.422;2023-04-03T04:29:00;1.30;99.90
4787;DHT22;62338;48.832;9.422;2023-04-03T04:31:02;1.30;1.00
4787;DHT22;62338;48.832;9.422;2023-04-03T04:33:04;1.30;99.90
4787;DHT22;62338;48.832;9.422;2023-04-03T04:35:07;1.30;1.00
4787;DHT22;62338;48.832;9.422;2023-04-03T04:37:09;1.30;1.00
4787;DHT22;62338;48.832;9.422;2023-04-03T04:39:11;1.30;1.00
4787;DHT22;62338;48.832;9.422;2023-04-03T04:41:13;1.30;1.00
4787;DHT22;62338;48.832;9.422;2023-04-03T04:43:15;1.30;1.00
4787;DHT22;62338;48.832;9.422;2023-04-03T04:45:18;1.30;1.00
4787;DHT22;62338;48.832;9.422;2023-04-03T04:47:19;1.20;1.00
4787;DHT22;62338;48.832;9.422;2023-04-03T04:49:21;1.20;1.00
4787;DHT22;62338;48.832;9.422;2023-04-03T04:51:23;1.20;1.00
4787;DHT22;62338;48.832;9.422;2023-04-03T04:53:25;1.20;1.00
4787;DHT22;62338;48.832;9.422;2023-04-03T04:55:27;1.20;1.00
4787;DHT22;62338;48.832;9.422;2023-04-03T04:57:29;1.30;1.00
4787;DHT22;62338;48.832;9.422;2023-04-03T04:59:31;1.30;1.00
4787;DHT22;62338;48.832;9.422;2023-04-03T05:01:32;1.20;1.00
4787;DHT22;62338;48.832;9.422;2023-04-03T05:03:34;1.20;1.00
4787;DHT22;62338;48.832;9.422;2023-04-03T05:05:37;1.20;1.00
4787;DHT22;62338;48.832;9.422;2023-04-03T05:07:40;1.10;1.00
4787;DHT22;62338;48.832;9.422;2023-04-03T05:09:42;1.10;1.00
4787;DHT22;62338;48.832;9.422;2023-04-03T05:11:45;1.10;1.00
4787;DHT22;62338;48.832;9.422;2023-04-03T05:13:46;1.00;1.00
4787;DHT22;62338;48.832;9.422;2023-04-03T05:15:48;0.90;1.00
4787;DHT22;62338;48.832;9.422;2023-04-03T05:17:50;0.90;1.00
4787;DHT22;62338;48.832;9.422;2023-04-03T05:19:53;0.80;1.00
4787;DHT22;62338;48.832;9.422;2023-04-03T05:21:54;0.80;1.00
4787;DHT22;62338;48.832;9.422;2023-04-03T05:23:57;0.80;1.00
4787;DHT22;62338;48.832;9.422;2023-04-03T05:25:59;0.80;1.00
4787;DHT22;62338;48.832;9.422;2023-04-03T05:28:01;0.70;1.00
4787;DHT22;62338;48.832;9.422;2023-04-03T05:30:03;0.80;1.00
4787;DHT22;62338;48.832;9.422;2023-04-03T05:32:05;0.80;1.00
4787;DHT22;62338;48.832;9.422;2023-04-03T05:34:07;0.80;1.00
4787;DHT22;62338;48.832;9.422;2023-04-03T05:36:09;0.80;1.00
4787;DHT22;62338;48.832;9.422;2023-04-03T05:38:11;0.90;1.00
4787;DHT22;62338;48.832;9.422;2023-04-03T05:40:13;0.90;1.00
4787;DHT22;62338;48.832;9.422;2023-04-03T05:42:17;1.00;1.00
4787;DHT22;62338;48.832;9.422;2023-04-03T05:44:19;1.00;1.00
4787;DHT22;62338;48.832;9.422;2023-04-03T05:46:21;1.10;1.00
4787;DHT22;62338;48.832;9.422;2023-04-03T05:48:23;1.20;1.00
4787;DHT22;62338;48.832;9.422;2023-04-03T05:50:25;1.20;1.00
4787;DHT22;62338;48.832;9.422;2023-04-03T05:52:35;1.30;1.00
4787;DHT22;62338;48.832;9.422;2023-04-03T05:54:37;1.40;1.00
4787;DHT22;62338;48.832;9.422;2023-04-03T05:56:39;1.40;1.00
4787;DHT22;62338;48.832;9.422;2023-04-03T05:58:41;1.50;1.00
4787;DHT22;62338;48.832;9.422;2023-04-03T06:00:43;1.60;1.00
4787;DHT22;62338;48.832;9.422;2023-04-03T06:02:45;1.60;1.00
4787;DHT22;62338;48.832;9.422;2023-04-03T06:04:48;1.70;1.00
4787;DHT22;62338;48.832;9.422;2023-04-03T06:06:56;1.70;1.00
4787;DHT22;62338;48.832;9.422;2023-04-03T06:08:57;1.80;1.00
4787;DHT22;62338;48.832;9.422;2023-04-03T06:10:59;1.80;99.90
4787;DHT22;62338;48.832;9.422;2023-04-03T06:13:01;1.80;1.00
4787;DHT22;62338;48.832;9.422;2023-04-03T06:15:04;1.90;1.00
4787;DHT22;62338;48.832;9.422;2023-04-03T06:17:06;1.90;1.00
4787;DHT22;62338;48.832;9.422;2023-04-03T06:19:08;1.90;1.00
4787;DHT22;62338;48.832;9.422;2023-04-03T06:21:11;1.90;1.00
4787;DHT22;62338;48.832;9.422;2023-04-03T06:23:13;1.90;1.00
4787;DHT22;62338;48.832;9.422;2023-04-03T06:25:14;2.00;1.00
4787;DHT22;62338;48.832;9.422;2023-04-03T06:27:18;1.90;1.00
4787;DHT22;62338;48.832;9.422;2023-04-03T06:29:21;2.00;1.00
4787;DHT22;62338;48.832;9.422;2023-04-03T06:31:23;2.00;1.00
4787;DHT22;62338;48.832;9.422;2023-04-03T06:33:24;2.00;1.00
4787;DHT22;62338;48.832;9.422;2023-04-03T06:35:26;2.10;1.00
4787;DHT22;62338;48.832;9.422;2023-04-03T06:37:30;2.10;1.00
4787;DHT22;62338;48.832;9.422;2023-04-03T06:39:32;2.20;1.00
4787;DHT22;62338;48.832;9.422;2023-04-03T06:41:34;2.30;99.90
4787;DHT22;62338;48.832;9.422;2023-04-03T06:43:37;2.30;99.90
4787;DHT22;62338;48.832;9.422;2023-04-03T06:45:39;2.40;99.90
4787;DHT22;62338;48.832;9.422;2023-04-03T06:47:41;2.50;1.00
4787;DHT22;62338;48.832;9.422;2023-04-03T06:49:44;2.50;99.90
4787;DHT22;62338;48.832;9.422;2023-04-03T06:51:46;2.50;99.90
4787;DHT22;62338;48.832;9.422;2023-04-03T06:53:48;2.70;99.90
4787;DHT22;62338;48.832;9.422;2023-04-03T06:55:50;2.80;99.90
4787;DHT22;62338;48.832;9.422;2023-04-03T06:57:52;2.90;99.90
4787;DHT22;62338;48.832;9.422;2023-04-03T06:59:53;2.90;99.90
4787;DHT22;62338;48.832;9.422;2023-04-03T07:01:55;2.90;99.90
4787;DHT22;62338;48.832;9.422;2023-04-03T07:03:57;3.10;99.90
4787;DHT22;62338;48.832;9.422;2023-04-03T07:05:59;3.10;99.90
4787;DHT22;62338;48.832;9.422;2023-04-03T07:08:01;3.20;99.90
4787;DHT22;62338;48.832;9.422;2023-04-03T07:10:04;3.20;99.90
4787;DHT22;62338;48.832;9.422;2023-04-03T07:12:06;3.40;99.90
4787;DHT22;62338;48.832;9.422;2023-04-03T07:14:08;3.50;99.90
4787;DHT22;62338;48.832;9.422;2023-04-03T07:16:10;3.60;99.90
4787;DHT22;62338;48.832;9.422;2023-04-03T07:18:12;3.70;1.00
4787;DHT22;62338;48.832;9.422;2023-04-03T07:20:14;3.80;1.00
4787;DHT22;62338;48.832;9.422;2023-04-03T07:22:16;3.90;1.00
4787;DHT22;62338;48.832;9.422;2023-04-03T07:24:18;4.00;99.90
4787;DHT22;62338;48.832;9.422;2023-04-03T07:26:21;4.10;99.90
4787;DHT22;62338;48.832;9.422;2023-04-03T07:28:24;4.20;99.90
4787;DHT22;62338;48.832;9.422;2023-04-03T07:30:25;4.30;1.00
4787;DHT22;62338;48.832;9.422;2023-04-03T07:32:28;4.20;99.90
4787;DHT22;62338;48.832;9.422;2023-04-03T07:34:30;4.30;1.00
4787;DHT22;62338;48.832;9.422;2023-04-03T07:36:32;4.30;99.90
4787;DHT22;62338;48.832;9.422;2023-04-03T07:38:36;4.40;1.00
4787;DHT22;62338;48.832;9.422;2023-04-03T07:40:39;4.50;99.90
4787;DHT22;62338;48.832;9.422;2023-04-03T07:42:41;4.50;99.90
4787;DHT22;62338;48.832;9.422;2023-04-03T07:44:43;4.60;1.00
4787;DHT22;62338;48.832;9.422;2023-04-03T07:46:45;4.50;1.00
4787;DHT22;62338;48.832;9.422;2023-04-03T07:48:48;4.40;1.00
4787;DHT22;62338;48.832;9.422;2023-04-03T07:50:50;4.40;99.90
4787;DHT22;62338;48.832;9.422;2023-04-03T07:52:52;4.40;99.90
4787;DHT22;62338;48.832;9.422;2023-04-03T07:54:56;4.50;99.90
4787;DHT22;62338;48.832;9.422;2023-04-03T07:56:57;4.60;1.00
4787;DHT22;62338;48.832;9.422;2023-04-03T07:58:59;4.80;1.00
4787;DHT22;62338;48.832;9.422;2023-04-03T08:01:01;5.10;99.90
4787;DHT22;62338;48.832;9.422;2023-04-03T08:03:04;5.30;1.00
4787;DHT22;62338;48.832;9.422;2023-04-03T08:05:06;5.40;1.00
4787;DHT22;62338;48.832;9.422;2023-04-03T08:07:08;5.40;99.90
4787;DHT22;62338;48.832;9.422;2023-04-03T08:09:09;5.30;99.90
4787;DHT22;62338;48.832;9.422;2023-04-03T08:11:11;5.20;1.00
4787;DHT22;62338;48.832;9.422;2023-04-03T08:13:13;5.20;99.90
4787;DHT22;62338;48.832;9.422;2023-04-03T08:15:15;5.40;99.90
4787;DHT22;62338;48.832;9.422;2023-04-03T08:17:17;5.40;1.00
4787;DHT22;62338;48.832;9.422;2023-04-03T08:19:19;5.60;99.90
4787;DHT22;62338;48.832;9.422;2023-04-03T08:21:27;5.70;1.00
4787;DHT22;62338;48.832;9.422;2023-04-03T08:23:29;5.60;99.90
4787;DHT22;62338;48.832;9.422;2023-04-03T08:25:31;5.60;1.00
4787;DHT22;62338;48.832;9.422;2023-04-03T08:27:33;5.40;78.90
4787;DHT22;62338;48.832;9.422;2023-04-03T08:29:35;5.60;1.00
4787;DHT22;62338;48.832;9.422;2023-04-03T08:31:39;6.10;99.90
4787;DHT22;62338;48.832;9.422;2023-04-03T08:33:41;6.20;99.90
4787;DHT22;62338;48.832;9.422;2023-04-03T08:35:43;6.00;99.90
4787;DHT22;62338;48.832;9.422;2023-04-03T08:37:45;6.00;99.90
4787;DHT22;62338;48.832;9.422;2023-04-03T08:39:47;6.20;99.90
4787;DHT22;62338;48.832;9.422;2023-04-03T08:41:49;6.50;1.00
4787;DHT22;62338;48.832;9.422;2023-04-03T08:44:18;7.00;99.90
4787;DHT22;62338;48.832;9.422;2023-04-03T08:46:44;6.90;99.90
4787;DHT22;62338;48.832;9.422;2023-04-03T08:48:49;6.60;1.00
4787;DHT22;62338;48.832;9.422;2023-04-03T08:50:56;6.50;1.00
4787;DHT22;62338;48.832;9.422;2023-04-03T08:52:59;6.30;1.00
4787;DHT22;62338;48.832;9.422;2023-04-03T08:57:39;5.70;1.00
4787;DHT22;62338;48.832;9.422;2023-04-03T08:59:40;5.90;99.90
4787;DHT22;62338;48.832;9.422;2023-04-03T09:01:43;6.60;1.00
4787;DHT22;62338;48.832;9.422;2023-04-03T09:03:45;7.90;99.90
4787;DHT22;62338;48.832;9.422;2023-04-03T09:06:05;8.60;1.00
4787;DHT22;62338;48.832;9.422;2023-04-03T09:08:18;8.50;99.90
4787;DHT22;62338;48.832;9.422;2023-04-03T09:10:28;8.20;99.90
4787;DHT22;62338;48.832;9.422;2023-04-03T09:12:42;7.90;1.00
4787;DHT22;62338;48.832;9.422;2023-04-03T09:19:54;7.30;21.20
4787;DHT22;62338;48.832;9.422;2023-04-03T09:22:26;6.70;99.90
4787;DHT22;62338;48.832;9.422;2023-04-03T09:24:31;6.50;1.00
4787;DHT22;62338;48.832;9.422;2023-04-03T09:26:39;6.40;1.00
4787;DHT22;62338;48.832;9.422;2023-04-03T09:28:42;6.50;99.90
4787;DHT22;62338;48.832;9.422;2023-04-03T09:30:51;6.70;99.90
4787;DHT22;62338;48.832;9.422;2023-04-03T09:32:54;6.70;99.90
4787;DHT22;62338;48.832;9.422;2023-04-03T09:35:01;6.50;99.90
4787;DHT22;62338;48.832;9.422;2023-04-03T09:37:39;6.50;99.90
4787;DHT22;62338;48.832;9.422;2023-04-03T09:39:53;6.30;1.00
4787;DHT22;62338;48.832;9.422;2023-04-03T09:42:21;6.20;99.90
4787;DHT22;62338;48.832;9.422;2023-04-03T09:44:27;6.30;99.90
4787;DHT22;62338;48.832;9.422;2023-04-03T09:46:32;6.40;1.00
4787;DHT22;62338;48.832;9.422;2023-04-03T09:48:34;6.40;1.00
4787;DHT22;62338;48.832;9.422;2023-04-03T09:50:36;6.20;1.00
4787;DHT22;62338;48.832;9.422;2023-04-03T09:52:42;6.20;99.90
4787;DHT22;62338;48.832;9.422;2023-04-03T09:54:45;6.40;99.90
4787;DHT22;62338;48.832;9.422;2023-04-03T09:56:50;6.20;99.90
4787;DHT22;62338;48.832;9.422;2023-04-03T09:59:08;5.90;99.90
4787;DHT22;62338;48.832;9.422;2023-04-03T10:03:34;5.60;99.90
4787;DHT22;62338;48.832;9.422;2023-04-03T10:05:41;5.40;99.90
4787;DHT22;62338;48.832;9.422;2023-04-03T10:07:43;5.40;99.90
4787;DHT22;62338;48.832;9.422;2023-04-03T10:10:01;5.40;1.00
4787;DHT22;62338;48.832;9.422;2023-04-03T10:12:07;5.30;99.90
4787;DHT22;62338;48.832;9.422;2023-04-03T10:14:16;5.30;99.90
4787;DHT22;62338;48.832;9.422;2023-04-03T10:16:23;5.40;1.00
4787;DHT22;62338;48.832;9.422;2023-04-03T10:18:44;5.50;99.90
4787;DHT22;62338;48.832;9.422;2023-04-03T10:20:48;5.50;1.00
4787;DHT22;62338;48.832;9.422;2023-04-03T10:28:01;5.40;1.00
4787;DHT22;62338;48.832;9.422;2023-04-03T10:30:28;5.60;1.00
4787;DHT22;62338;48.832;9.422;2023-04-03T10:34:44;6.10;1.00
4787;DHT22;62338;48.832;9.422;2023-04-03T10:39:45;6.20;99.90
4787;DHT22;62338;48.832;9.422;2023-04-03T10:44:39;6.30;99.90
4787;DHT22;62338;48.832;9.422;2023-04-03T10:46:55;6.20;99.90
4787;DHT22;62338;48.832;9.422;2023-04-03T10:51:41;6.00;1.00
4787;DHT22;62338;48.832;9.422;2023-04-03T10:54:08;6.10;48.90
4787;DHT22;62338;48.832;9.422;2023-04-03T10:56:41;6.20;1.00
4787;DHT22;62338;48.832;9.422;2023-04-03T10:58:48;6.40;1.00
4787;DHT22;62338;48.832;9.422;2023-04-03T11:00:53;6.50;1.00
4787;DHT22;62338;48.832;9.422;2023-04-03T11:02:59;6.80;1.00
4787;DHT22;62338;48.832;9.422;2023-04-03T11:05:07;7.00;1.00
4787;DHT22;62338;48.832;9.422;2023-04-03T11:07:20;7.10;1.00
4787;DHT22;62338;48.832;9.422;2023-04-03T11:09:34;7.00;1.00
4787;DHT22;62338;48.832;9.422;2023-04-03T11:11:41;6.70;1.00
4787;DHT22;62338;48.832;9.422;2023-04-03T11:16:02;6.60;1.00
4787;DHT22;62338;48.832;9.422;2023-04-03T11:18:17;6.70;1.00
4787;DHT22;62338;48.832;9.422;2023-04-03T11:20:31;6.80;1.00
4787;DHT22;62338;48.832;9.422;2023-04-03T11:22:41;6.90;1.00
4787;DHT22;62338;48.832;9.422;2023-04-03T11:24:50;7.00;99.90
4787;DHT22;62338;48.832;9.422;2023-04-03T11:26:56;7.00;99.90
4787;DHT22;62338;48.832;9.422;2023-04-03T11:29:03;7.00;99.90
4787;DHT22;62338;48.832;9.422;2023-04-03T11:31:30;7.20;99.90
4787;DHT22;62338;48.832;9.422;2023-04-03T11:35:47;7.00;1.00
4787;DHT22;62338;48.832;9.422;2023-04-03T11:37:52;6.80;1.00
4787;DHT22;62338;48.832;9.422;2023-04-03T11:40:04;6.60;1.00
4787;DHT22;62338;48.832;9.422;2023-04-03T11:42:38;6.50;1.00
4787;DHT22;62338;48.832;9.422;2023-04-03T11:44:40;6.60;1.00
4787;DHT22;62338;48.832;9.422;2023-04-03T11:46:59;6.80;1.00
4787;DHT22;62338;48.832;9.422;2023-04-03T11:49:01;7.00;1.00
4787;DHT22;62338;48.832;9.422;2023-04-03T11:57:49;7.50;1.00
4787;DHT22;62338;48.832;9.422;2023-04-03T12:02:43;6.90;1.00
4787;DHT22;62338;48.832;9.422;2023-04-03T12:05:29;6.70;1.00
4787;DHT22;62338;48.832;9.422;2023-04-03T12:07:31;6.50;1.00
4787;DHT22;62338;48.832;9.422;2023-04-03T12:11:44;6.50;1.00
4787;DHT22;62338;48.832;9.422;2023-04-03T12:15:59;6.50;1.00
4787;DHT22;62338;48.832;9.422;2023-04-03T12:23:08;7.00;1.00
4787;DHT22;62338;48.832;9.422;2023-04-03T12:25:47;7.20;1.00
4787;DHT22;62338;48.832;9.422;2023-04-03T12:27:51;7.60;1.00
4787;DHT22;62338;48.832;9.422;2023-04-03T12:38:56;8.10;99.90
4787;DHT22;62338;48.832;9.422;2023-04-03T12:48:17;6.70;1.00
4787;DHT22;62338;48.832;9.422;2023-04-03T12:50:29;6.50;1.00
4787;DHT22;62338;48.832;9.422;2023-04-03T12:52:36;6.50;1.00
4787;DHT22;62338;48.832;9.422;2023-04-03T12:54:39;6.50;1.00
4787;DHT22;62338;48.832;9.422;2023-04-03T12:56:42;6.70;1.00
4787;DHT22;62338;48.832;9.422;2023-04-03T12:58:43;6.90;1.00
4787;DHT22;62338;48.832;9.422;2023-04-03T13:00:46;7.10;1.00
4787;DHT22;62338;48.832;9.422;2023-04-03T13:02:47;7.20;1.00
4787;DHT22;62338;48.832;9.422;2023-04-03T13:04:52;7.40;99.90
4787;DHT22;62338;48.832;9.422;2023-04-03T13:06:54;7.80;99.90
4787;DHT22;62338;48.832;9.422;2023-04-03T13:09:00;8.30;99.90
4787;DHT22;62338;48.832;9.422;2023-04-03T13:11:11;8.20;99.90
4787;DHT22;62338;48.832;9.422;2023-04-03T13:13:14;7.90;99.90
4787;DHT22;62338;48.832;9.422;2023-04-03T13:15:39;7.90;99.90
4787;DHT22;62338;48.832;9.422;2023-04-03T13:17:43;7.70;99.90
4787;DHT22;62338;48.832;9.422;2023-04-03T13:19:47;7.60;99.90
4787;DHT22;62338;48.832;9.422;2023-04-03T13:21:54;7.50;99.90
4787;DHT22;62338;48.832;9.422;2023-04-03T13:24:01;7.30;99.90
4787;DHT22;62338;48.832;9.422;2023-04-03T13:26:18;7.40;99.90
4787;DHT22;62338;48.832;9.422;2023-04-03T13:28:23;7.50;99.90
4787;DHT22;62338;48.832;9.422;2023-04-03T13:30:32;7.50;99.90
4787;DHT22;62338;48.832;9.422;2023-04-03T13:32:35;7.40;99.90
4787;DHT22;62338;48.832;9.422;2023-04-03T13:34:41;7.20;99.90
4787;DHT22;62338;48.832;9.422;2023-04-03T13:36:59;7.20;99.90
4787;DHT22;62338;48.832;9.422;2023-04-03T13:39:20;7.00;99.90
4787;DHT22;62338;48.832;9.422;2023-04-03T13:41:30;7.00;99.90
4787;DHT22;62338;48.832;9.422;2023-04-03T13:43:36;7.00;99.90
4787;DHT22;62338;48.832;9.422;2023-04-03T13:45:38;7.10;99.90
4787;DHT22;62338;48.832;9.422;2023-04-03T13:47:43;7.20;99.90
4787;DHT22;62338;48.832;9.422;2023-04-03T13:50:03;7.50;99.90
4787;DHT22;62338;48.832;9.422;2023-04-03T13:54:38;7.80;99.90
4787;DHT22;62338;48.832;9.422;2023-04-03T13:56:40;7.80;99.90
4787;DHT22;62338;48.832;9.422;2023-04-03T13:58:57;8.20;99.90
4787;DHT22;62338;48.832;9.422;2023-04-03T14:01:07;9.50;99.90
4787;DHT22;62338;48.832;9.422;2023-04-03T14:03:32;10.70;99.90
4787;DHT22;62338;48.832;9.422;2023-04-03T14:05:34;10.50;99.90
4787;DHT22;62338;48.832;9.422;2023-04-03T14:07:36;10.20;99.90
4787;DHT22;62338;48.832;9.422;2023-04-03T14:09:39;9.40;99.90
4787;DHT22;62338;48.832;9.422;2023-04-03T14:11:42;8.80;99.90
4787;DHT22;62338;48.832;9.422;2023-04-03T14:13:45;8.50;99.90
4787;DHT22;62338;48.832;9.422;2023-04-03T14:15:48;8.10;99.90
4787;DHT22;62338;48.832;9.422;2023-04-03T14:17:50;7.90;99.90
4787;DHT22;62338;48.832;9.422;2023-04-03T14:19:56;7.80;99.90
4787;DHT22;62338;48.832;9.422;2023-04-03T14:21:59;7.70;99.90
4787;DHT22;62338;48.832;9.422;2023-04-03T14:24:02;7.80;99.90
4787;DHT22;62338;48.832;9.422;2023-04-03T14:26:10;7.90;99.90
4787;DHT22;62338;48.832;9.422;2023-04-03T14:28:18;7.90;99.90
4787;DHT22;62338;48.832;9.422;2023-04-03T14:32:28;8.00;99.90
4787;DHT22;62338;48.832;9.422;2023-04-03T14:34:29;7.90;99.90
4787;DHT22;62338;48.832;9.422;2023-04-03T14:36:32;7.90;99.90
4787;DHT22;62338;48.832;9.422;2023-04-03T14:38:34;7.90;99.90
4787;DHT22;62338;48.832;9.422;2023-04-03T14:40:36;7.80;99.90
4787;DHT22;62338;48.832;9.422;2023-04-03T14:42:38;8.30;99.90
4787;DHT22;62338;48.832;9.422;2023-04-03T14:44:41;8.50;99.90
4787;DHT22;62338;48.832;9.422;2023-04-03T14:46:44;8.40;99.90
4787;DHT22;62338;48.832;9.422;2023-04-03T14:48:58;8.10;99.90
4787;DHT22;62338;48.832;9.422;2023-04-03T14:51:00;7.90;99.90
4787;DHT22;62338;48.832;9.422;2023-04-03T14:53:06;7.80;99.90
4787;DHT22;62338;48.832;9.422;2023-04-03T14:55:11;7.50;99.90
4787;DHT22;62338;48.832;9.422;2023-04-03T14:57:15;7.50;99.90
4787;DHT22;62338;48.832;9.422;2023-04-03T14:59:17;7.50;99.90